createdAt,value
2022-07-29T10:20:22.089Z,22.59
2022-07-29T10:21:35.702Z,22.59
2022-07-29T10:22:54.522Z,22.59
2022-07-29T10:23:51.185Z,22.59
2022-07-29T10:25:00.798Z,22.59
2022-07-29T10:26:08.408Z,22.59
2022-07-29T10:27:18.071Z,22.6
2022-07-29T10:28:25.689Z,22.610001
2022-07-29T10:29:34.320Z,22.610001
2022-07-29T10:30:44.010Z,22.620001
2022-07-29T10:31:53.026Z,22.629999
2022-07-29T10:33:02.601Z,22.65
2022-07-29T10:34:12.555Z,22.66
2022-07-29T10:35:22.053Z,22.67
2022-07-29T10:36:31.843Z,22.690001
2022-07-29T10:37:45.772Z,22.709999
2022-07-29T10:38:51.089Z,22.719999
2022-07-29T10:40:02.623Z,22.74
2022-07-29T10:41:12.339Z,22.75
2022-07-29T10:42:29.435Z,22.77
2022-07-29T10:43:32.463Z,22.780001
2022-07-29T10:44:43.081Z,22.799999
2022-07-29T10:45:52.708Z,22.82
2022-07-29T10:47:01.433Z,22.83
2022-07-29T10:48:10.947Z,22.85
2022-07-29T10:49:24.326Z,22.860001
2022-07-29T10:50:30.124Z,22.879999
2022-07-29T10:51:39.700Z,22.889999
2022-07-29T10:52:49.296Z,22.91
2022-07-29T10:53:56.884Z,22.92
2022-07-29T10:55:06.503Z,22.93
2022-07-29T10:56:16.107Z,22.940001
2022-07-29T10:57:25.532Z,22.959999
2022-07-29T10:58:35.192Z,22.969999
2022-07-29T10:59:45.774Z,22.98
2022-07-29T11:00:56.414Z,22.99
2022-07-29T11:02:28.188Z,23
2022-07-29T11:03:16.332Z,23.01
2022-07-29T11:04:26.881Z,23.01
2022-07-29T11:05:40.025Z,23.02
2022-07-29T11:06:45.100Z,23.030001
2022-07-29T11:07:55.702Z,23.030001
2022-07-29T11:09:06.266Z,23.040001
2022-07-29T11:10:15.825Z,23.049999
2022-07-29T11:11:25.369Z,23.049999
2022-07-29T11:12:35.961Z,23.049999
2022-07-29T11:13:46.480Z,23.059999
2022-07-29T11:14:55.194Z,23.059999
2022-07-29T11:16:02.780Z,23.059999
2022-07-29T11:17:14.017Z,23.059999
2022-07-29T11:18:22.007Z,23.07
2022-07-29T11:19:31.600Z,23.07
2022-07-29T11:20:42.194Z,23.07
2022-07-29T11:21:54.413Z,23.07
2022-07-29T11:23:00.303Z,23.07
2022-07-29T11:24:10.882Z,23.07
2022-07-29T11:25:42.704Z,23.07
2022-07-29T11:26:31.997Z,23.07
2022-07-29T11:27:41.571Z,23.07
2022-07-29T11:28:50.137Z,23.07
2022-07-29T11:30:01.043Z,23.07
2022-07-29T11:31:09.436Z,23.07
2022-07-29T11:32:18.290Z,23.07
2022-07-29T11:33:37.671Z,23.07
2022-07-29T11:34:39.344Z,23.07
2022-07-29T11:36:00.526Z,23.07
2022-07-29T11:36:59.641Z,23.07
2022-07-29T11:38:08.234Z,23.07
2022-07-29T11:39:18.947Z,23.059999
2022-07-29T11:40:29.533Z,23.059999
2022-07-29T11:41:39.190Z,23.059999
2022-07-29T11:42:48.811Z,23.059999
2022-07-29T11:43:59.428Z,23.059999
2022-07-29T11:45:40.415Z,23.049999
2022-07-29T11:46:25.063Z,23.049999
2022-07-29T11:47:30.321Z,23.049999
2022-07-29T11:48:39.907Z,23.049999
2022-07-29T11:49:49.508Z,23.049999
2022-07-29T11:50:59.139Z,23.049999
2022-07-29T11:52:10.965Z,23.040001
2022-07-29T11:53:17.389Z,23.040001
2022-07-29T11:54:28.002Z,23.040001
2022-07-29T11:55:37.627Z,23.040001
2022-07-29T11:56:48.232Z,23.040001
2022-07-29T11:58:03.631Z,23.030001
2022-07-29T11:59:08.307Z,23.030001
2022-07-29T12:00:18.623Z,23.030001
2022-07-29T12:01:26.740Z,23.030001
2022-07-29T12:02:36.867Z,23.030001
2022-07-29T12:03:45.063Z,23.030001
2022-07-29T12:04:55.236Z,23.02
2022-07-29T12:06:03.376Z,23.02
2022-07-29T12:07:15.480Z,23.02
2022-07-29T12:08:25.256Z,23.02
2022-07-29T12:09:40.209Z,23.01
2022-07-29T12:10:44.506Z,23.01
2022-07-29T12:11:52.118Z,23.01
2022-07-29T12:13:01.696Z,23.01
2022-07-29T12:14:10.343Z,23
2022-07-29T12:15:20.331Z,23
2022-07-29T12:16:30.947Z,23
2022-07-29T12:17:39.656Z,23
2022-07-29T12:18:49.257Z,23
2022-07-29T12:19:58.922Z,22.99
2022-07-29T12:21:09.582Z,22.99
2022-07-29T12:22:19.235Z,22.99
2022-07-29T12:23:29.389Z,22.99
2022-07-29T12:24:37.437Z,22.99
2022-07-29T12:25:49.781Z,22.98
2022-07-29T12:26:56.688Z,22.98
2022-07-29T12:28:05.313Z,22.98
2022-07-29T12:29:15.593Z,22.98
2022-07-29T12:30:25.590Z,22.98
2022-07-29T12:31:41.811Z,22.98
2022-07-29T12:32:45.853Z,22.969999
2022-07-29T12:33:53.483Z,22.969999
2022-07-29T12:35:03.068Z,22.969999
2022-07-29T12:36:14.279Z,22.969999
2022-07-29T12:37:20.334Z,22.969999
2022-07-29T12:38:31.049Z,22.959999
2022-07-29T12:39:38.676Z,22.959999
2022-07-29T12:40:48.330Z,22.959999
2022-07-29T12:41:58.116Z,22.959999
2022-07-29T12:43:08.523Z,22.959999
2022-07-29T12:44:18.166Z,22.959999
2022-07-29T12:45:25.858Z,22.950001
2022-07-29T12:46:34.566Z,22.950001
2022-07-29T12:47:44.128Z,22.950001
2022-07-29T12:48:51.862Z,22.950001
2022-07-29T12:50:01.375Z,22.950001
2022-07-29T12:51:10.164Z,22.950001
2022-07-29T12:52:17.778Z,22.950001
2022-07-29T12:53:27.412Z,22.950001
2022-07-29T12:54:37.775Z,22.950001
2022-07-29T12:55:46.425Z,22.950001
2022-07-29T12:56:56.395Z,22.940001
2022-07-29T12:58:05.058Z,22.940001
2022-07-29T12:59:14.715Z,22.940001
2022-07-29T13:00:23.342Z,22.940001
2022-07-29T13:01:31.350Z,22.940001
2022-07-29T13:02:41.046Z,22.940001
2022-07-29T13:03:57.289Z,22.940001
2022-07-29T13:05:00.675Z,22.93
2022-07-29T13:06:10.434Z,22.93
2022-07-29T13:07:19.107Z,22.93
2022-07-29T13:08:29.819Z,22.93
2022-07-29T13:09:38.365Z,22.93
2022-07-29T13:10:47.014Z,22.92
2022-07-29T13:11:56.587Z,22.92
2022-07-29T13:13:06.191Z,22.92
2022-07-29T13:14:13.811Z,22.92
2022-07-29T13:15:23.440Z,22.91
2022-07-29T13:16:32.436Z,22.91
2022-07-29T13:17:40.952Z,22.91
2022-07-29T13:18:50.538Z,22.91
2022-07-29T13:19:59.137Z,22.9
2022-07-29T13:21:09.749Z,22.9
2022-07-29T13:22:19.815Z,22.9
2022-07-29T13:23:29.086Z,22.9
2022-07-29T13:24:38.676Z,22.889999
2022-07-29T13:25:47.758Z,22.889999
2022-07-29T13:26:56.266Z,22.889999
2022-07-29T13:28:06.926Z,22.889999
2022-07-29T13:29:14.532Z,22.879999
2022-07-29T13:30:24.566Z,22.879999
2022-07-29T13:31:33.824Z,22.879999
2022-07-29T13:32:42.419Z,22.879999
2022-07-29T13:33:52.047Z,22.870001
2022-07-29T13:35:05.197Z,22.870001
2022-07-29T13:36:09.825Z,22.870001
2022-07-29T13:37:19.597Z,22.860001
2022-07-29T13:38:30.943Z,22.860001
2022-07-29T13:39:37.907Z,22.860001
2022-07-29T13:40:49.345Z,22.860001
2022-07-29T13:41:57.644Z,22.85
2022-07-29T13:43:08.091Z,22.85
2022-07-29T13:44:17.019Z,22.85
2022-07-29T13:45:25.946Z,22.85
2022-07-29T13:46:35.923Z,22.85
2022-07-29T13:47:49.329Z,22.84
2022-07-29T13:48:54.904Z,22.84
2022-07-29T13:50:05.370Z,22.84
2022-07-29T13:51:12.702Z,22.84
2022-07-29T13:52:23.230Z,22.84
2022-07-29T13:53:33.320Z,22.83
2022-07-29T13:54:43.288Z,22.83
2022-07-29T13:55:53.491Z,22.83
2022-07-29T13:57:02.315Z,22.83
2022-07-29T13:58:11.257Z,22.83
2022-07-29T13:59:21.218Z,22.83
2022-07-29T14:00:30.066Z,22.83
2022-07-29T14:01:40.171Z,22.83
2022-07-29T14:02:49.013Z,22.84
2022-07-29T14:03:58.020Z,22.84
2022-07-29T14:05:08.750Z,22.84
2022-07-29T14:06:18.273Z,22.84
2022-07-29T14:07:27.547Z,22.84
2022-07-29T14:08:37.297Z,22.84
2022-07-29T14:09:44.969Z,22.84
2022-07-29T14:10:54.599Z,22.85
2022-07-29T14:12:03.447Z,22.85
2022-07-29T14:13:14.923Z,22.85
2022-07-29T14:14:22.690Z,22.85
2022-07-29T14:15:31.327Z,22.860001
2022-07-29T14:16:43.821Z,22.860001
2022-07-29T14:17:51.640Z,22.860001
2022-07-29T14:18:59.232Z,22.860001
2022-07-29T14:20:08.875Z,22.870001
2022-07-29T14:21:19.395Z,22.870001
2022-07-29T14:22:29.331Z,22.870001
2022-07-29T14:23:38.996Z,22.879999
2022-07-29T14:24:48.673Z,22.879999
2022-07-29T14:25:57.220Z,22.889999
2022-07-29T14:27:06.893Z,22.889999
2022-07-29T14:28:15.471Z,22.889999
2022-07-29T14:29:25.068Z,22.9
2022-07-29T14:30:35.634Z,22.9
2022-07-29T14:31:43.362Z,22.9
2022-07-29T14:32:52.956Z,22.91
2022-07-29T14:34:02.936Z,22.91
2022-07-29T14:35:11.345Z,22.92
2022-07-29T14:36:22.195Z,22.92
2022-07-29T14:37:36.394Z,22.93
2022-07-29T14:38:41.118Z,22.93
2022-07-29T14:39:49.777Z,22.940001
2022-07-29T14:40:57.370Z,22.940001
2022-07-29T14:42:07.032Z,22.940001
2022-07-29T14:43:15.686Z,22.950001
2022-07-29T14:44:24.304Z,22.959999
2022-07-29T14:45:33.995Z,22.959999
2022-07-29T14:46:41.835Z,22.959999
2022-07-29T14:47:51.465Z,22.969999
2022-07-29T14:49:01.198Z,22.969999
2022-07-29T14:50:10.716Z,22.98
2022-07-29T14:51:21.358Z,22.98
2022-07-29T14:52:30.736Z,22.99
2022-07-29T14:53:39.317Z,22.99
2022-07-29T14:54:49.665Z,22.99
2022-07-29T14:56:02.869Z,23
2022-07-29T14:57:07.864Z,23
2022-07-29T14:58:16.773Z,23
2022-07-29T14:59:25.113Z,23.01
2022-07-29T15:00:34.774Z,23.01
2022-07-29T15:01:43.436Z,23.02
2022-07-29T15:03:01.681Z,23.02
2022-07-29T15:04:02.680Z,23.030001
2022-07-29T15:05:10.277Z,23.030001
2022-07-29T15:06:20.012Z,23.030001
2022-07-29T15:07:28.617Z,23.040001
2022-07-29T15:08:36.231Z,23.040001
2022-07-29T15:09:47.538Z,23.049999
2022-07-29T15:10:55.465Z,23.049999
2022-07-29T15:12:03.076Z,23.049999
2022-07-29T15:13:12.716Z,23.059999
2022-07-29T15:14:21.360Z,23.059999
2022-07-29T15:15:28.947Z,23.07
2022-07-29T15:16:39.279Z,23.07
2022-07-29T15:17:48.744Z,23.07
2022-07-29T15:18:58.455Z,23.08
2022-07-29T15:20:08.127Z,23.08
2022-07-29T15:21:15.755Z,23.08
2022-07-29T15:22:25.465Z,23.09
2022-07-29T15:23:34.070Z,23.09
2022-07-29T15:24:41.654Z,23.1
2022-07-29T15:25:51.253Z,23.1
2022-07-29T15:26:58.906Z,23.110001
2022-07-29T15:28:07.764Z,23.110001
2022-07-29T15:29:17.417Z,23.120001
2022-07-29T15:30:27.964Z,23.120001
2022-07-29T15:31:35.857Z,23.120001
2022-07-29T15:32:45.445Z,23.129999
2022-07-29T15:33:58.755Z,23.129999
2022-07-29T15:35:06.633Z,23.139999
2022-07-29T15:36:35.943Z,23.15
2022-07-29T15:37:26.808Z,23.15
